createdAt,value
2018-03-18T00:00:37.971Z,3.80
2018-03-18T00:03:04.615Z,4.20
2018-03-18T00:05:33.184Z,3.75
2018-03-18T00:07:59.826Z,4.70
2018-03-18T00:10:27.830Z,3.70
2018-03-18T00:12:55.890Z,4.20
2018-03-18T00:15:23.592Z,4.57
2018-03-18T00:17:50.348Z,4.25
2018-03-18T00:20:26.083Z,4.43
2018-03-18T00:22:52.770Z,4.50
2018-03-18T00:25:19.449Z,4.62
2018-03-18T00:27:46.763Z,5.10
2018-03-18T00:30:13.798Z,5.15
2018-03-18T00:32:44.997Z,3.60
2018-03-18T00:35:11.816Z,4.70
2018-03-18T00:37:38.463Z,4.45
2018-03-18T00:40:09.166Z,5.20
2018-03-18T00:42:36.728Z,4.15
2018-03-18T00:45:04.181Z,4.90
2018-03-18T00:47:31.435Z,4.50
2018-03-18T00:49:58.560Z,4.70
2018-03-18T00:52:25.216Z,3.92
2018-03-18T00:54:51.865Z,5.07
2018-03-18T00:57:18.922Z,4.53
2018-03-18T00:59:46.127Z,4.12
2018-03-18T01:02:16.818Z,4.18
2018-03-18T01:04:44.527Z,3.62
2018-03-18T01:07:11.574Z,4.12
2018-03-18T01:09:39.084Z,4.85
2018-03-18T01:12:06.392Z,4.55
2018-03-18T01:14:40.984Z,4.60
2018-03-18T01:17:08.515Z,5.05
2018-03-18T01:19:36.487Z,4.90
2018-03-18T01:22:03.223Z,4.47
2018-03-18T01:24:30.426Z,4.07
2018-03-18T01:26:57.942Z,3.47
2018-03-18T01:29:26.443Z,4.47
2018-03-18T01:31:57.376Z,4.45
2018-03-18T01:34:25.133Z,3.55
2018-03-18T01:36:56.528Z,4.37
2018-03-18T01:39:24.156Z,4.93
2018-03-18T01:41:51.177Z,5.12
2018-03-18T01:44:17.977Z,4.60
2018-03-18T01:46:45.498Z,4.75
2018-03-18T01:49:12.404Z,4.65
2018-03-18T01:51:39.623Z,4.25
2018-03-18T01:54:14.279Z,5.40
2018-03-18T01:56:40.915Z,4.90
2018-03-18T01:59:07.879Z,4.35
2018-03-18T02:01:38.402Z,4.68
2018-03-18T02:04:05.128Z,5.15
2018-03-18T02:06:32.987Z,4.37
2018-03-18T02:09:00.095Z,5.28
2018-03-18T02:11:26.746Z,5.45
2018-03-18T02:13:55.163Z,4.70
2018-03-18T02:16:23.312Z,4.57
2018-03-18T02:18:58.710Z,4.65
2018-03-18T02:21:29.888Z,4.62
2018-03-18T02:24:00.467Z,4.93
2018-03-18T02:26:28.108Z,4.40
2018-03-18T02:28:54.777Z,4.53
2018-03-18T02:31:22.529Z,6.07
2018-03-18T02:33:50.617Z,4.37
2018-03-18T02:36:18.011Z,4.45
2018-03-18T02:38:44.720Z,4.43
2018-03-18T02:41:11.681Z,5.57
2018-03-18T02:43:38.446Z,4.90
2018-03-18T02:46:05.143Z,3.83
2018-03-18T02:48:33.291Z,5.37
2018-03-18T02:50:59.984Z,4.85
2018-03-18T02:53:26.701Z,4.15
2018-03-18T02:55:57.300Z,4.53
2018-03-18T02:58:24.019Z,4.93
2018-03-18T03:00:51.255Z,4.87
2018-03-18T03:03:19.123Z,5.90
2018-03-18T03:05:47.246Z,4.45
2018-03-18T03:08:14.008Z,4.95
2018-03-18T03:10:41.158Z,4.25
2018-03-18T03:13:07.849Z,4.65
2018-03-18T03:15:35.227Z,4.70
2018-03-18T03:18:01.871Z,5.20
2018-03-18T03:20:29.386Z,6.30
2018-03-18T03:22:56.128Z,4.60
2018-03-18T03:25:24.215Z,4.65
2018-03-18T03:27:51.036Z,4.25
2018-03-18T03:30:17.687Z,4.87
2018-03-18T03:32:44.413Z,4.95
2018-03-18T03:35:11.345Z,5.12
2018-03-18T03:37:38.020Z,4.35
2018-03-18T03:40:04.843Z,5.82
2018-03-18T03:42:32.572Z,4.43
2018-03-18T03:44:59.559Z,5.03
2018-03-18T03:47:26.428Z,4.80
2018-03-18T03:49:53.200Z,4.22
2018-03-18T03:52:25.693Z,5.22
2018-03-18T03:54:53.116Z,5.45
2018-03-18T03:57:24.718Z,4.00
2018-03-18T03:59:51.411Z,4.75
2018-03-18T04:02:22.061Z,4.37
2018-03-18T04:04:49.115Z,4.18
2018-03-18T04:07:16.708Z,5.15
2018-03-18T04:09:45.528Z,4.15
2018-03-18T04:12:13.743Z,3.62
2018-03-18T04:14:40.468Z,4.43
2018-03-18T04:17:07.190Z,5.05
2018-03-18T04:19:34.432Z,4.47
2018-03-18T04:22:01.152Z,4.90
2018-03-18T04:24:27.981Z,5.30
2018-03-18T04:26:54.710Z,4.97
2018-03-18T04:29:27.209Z,4.97
2018-03-18T04:31:53.902Z,5.75
2018-03-18T04:34:21.367Z,4.70
2018-03-18T04:36:48.024Z,4.95
2018-03-18T04:39:18.411Z,4.72
2018-03-18T04:41:45.127Z,5.50
2018-03-18T04:44:16.024Z,4.93
2018-03-18T04:46:43.309Z,4.90
2018-03-18T04:49:09.923Z,4.85
2018-03-18T04:51:37.477Z,5.45
2018-03-18T04:54:08.517Z,5.20
2018-03-18T04:56:35.517Z,4.80
2018-03-18T04:59:03.057Z,5.47
2018-03-18T05:01:37.390Z,4.55
2018-03-18T05:04:04.856Z,4.60
2018-03-18T05:06:32.396Z,5.55
2018-03-18T05:08:59.112Z,5.45
2018-03-18T05:11:25.876Z,5.53
2018-03-18T05:13:56.772Z,5.18
2018-03-18T05:16:24.343Z,5.28
2018-03-18T05:18:51.035Z,6.15
2018-03-18T05:21:22.271Z,5.05
2018-03-18T05:23:48.983Z,5.82
2018-03-18T05:26:15.616Z,4.05
2018-03-18T05:28:42.331Z,4.87
2018-03-18T05:31:10.576Z,5.15
2018-03-18T05:33:37.201Z,4.65
2018-03-18T05:36:07.987Z,4.53
2018-03-18T05:38:35.319Z,4.35
2018-03-18T05:41:05.754Z,5.30
2018-03-18T05:43:32.872Z,4.78
2018-03-18T05:46:03.357Z,4.87
2018-03-18T05:48:30.238Z,5.00
2018-03-18T05:50:58.048Z,4.78
2018-03-18T05:53:27.497Z,5.95
2018-03-18T05:55:54.237Z,5.32
2018-03-18T05:58:20.856Z,4.70
2018-03-18T06:00:47.514Z,5.28
2018-03-18T06:03:14.127Z,4.85
2018-03-18T06:05:40.814Z,4.90
2018-03-18T06:08:07.429Z,6.50
2018-03-18T06:10:34.049Z,5.62
2018-03-18T06:13:00.671Z,5.20
2018-03-18T06:15:27.322Z,5.90
2018-03-18T06:17:53.996Z,5.57
2018-03-18T06:20:20.706Z,5.62
2018-03-18T06:22:47.288Z,4.28
2018-03-18T06:25:13.925Z,4.55
2018-03-18T06:27:40.545Z,4.60
2018-03-18T06:30:07.162Z,4.47
2018-03-18T06:32:33.799Z,5.95
2018-03-18T06:35:00.442Z,5.95
2018-03-18T06:37:27.086Z,4.72
2018-03-18T06:39:53.696Z,5.78
2018-03-18T06:42:20.328Z,5.30
2018-03-18T06:44:46.941Z,5.70
2018-03-18T06:47:13.577Z,4.53
2018-03-18T06:49:40.723Z,5.22
2018-03-18T06:52:07.399Z,5.35
2018-03-18T06:54:34.036Z,5.35
2018-03-18T06:57:00.699Z,4.05
2018-03-18T06:59:27.337Z,4.28
2018-03-18T07:01:54.013Z,4.82
2018-03-18T07:04:20.668Z,4.85
2018-03-18T07:06:47.301Z,5.90
2018-03-18T07:09:13.928Z,4.68
2018-03-18T07:11:40.544Z,6.15
2018-03-18T07:14:07.244Z,4.22
2018-03-18T07:16:33.852Z,4.55
2018-03-18T07:19:00.499Z,4.85
2018-03-18T07:21:27.136Z,4.70
2018-03-18T07:23:53.772Z,6.32
2018-03-18T07:26:20.418Z,5.50
2018-03-18T07:28:47.074Z,5.30
2018-03-18T07:31:13.713Z,5.47
2018-03-18T07:33:40.340Z,5.22
2018-03-18T07:36:06.980Z,4.93
2018-03-18T07:38:33.625Z,4.65
2018-03-18T07:41:00.232Z,4.07
2018-03-18T07:43:26.881Z,5.50
2018-03-18T07:45:53.504Z,4.87
2018-03-18T07:48:20.190Z,5.22
2018-03-18T07:50:46.958Z,5.60
2018-03-18T07:53:13.581Z,4.68
2018-03-18T07:55:40.224Z,5.78
2018-03-18T07:58:06.840Z,5.25
2018-03-18T08:00:33.500Z,5.47
2018-03-18T08:03:00.145Z,5.45
2018-03-18T08:05:26.782Z,5.45
2018-03-18T08:07:53.454Z,5.62
2018-03-18T08:10:20.128Z,4.65
2018-03-18T08:12:46.771Z,5.47
2018-03-18T08:15:13.488Z,4.03
2018-03-18T08:17:40.788Z,4.80
2018-03-18T08:20:07.430Z,6.15
2018-03-18T08:22:34.085Z,4.87
2018-03-18T08:25:00.698Z,4.70
2018-03-18T08:27:27.323Z,5.32
2018-03-18T08:29:53.965Z,4.55
2018-03-18T08:32:20.622Z,5.03
2018-03-18T08:34:47.256Z,5.53
2018-03-18T08:37:13.876Z,4.32
2018-03-18T08:39:40.506Z,5.28
2018-03-18T08:42:07.134Z,5.05
2018-03-18T08:44:33.749Z,4.43
2018-03-18T08:47:00.416Z,5.68
2018-03-18T08:49:27.087Z,4.85
2018-03-18T08:51:53.778Z,4.10
2018-03-18T08:54:20.421Z,4.85
2018-03-18T08:56:47.028Z,5.20
2018-03-18T08:59:14.449Z,4.70
2018-03-18T09:01:41.145Z,4.78
2018-03-18T09:04:07.774Z,5.07
2018-03-18T09:06:34.434Z,3.40
2018-03-18T09:09:01.137Z,4.57
2018-03-18T09:11:27.736Z,3.40
2018-03-18T09:13:54.459Z,4.20
2018-03-18T09:16:21.083Z,4.20
2018-03-18T09:18:47.729Z,4.65
2018-03-18T09:21:14.340Z,4.32
2018-03-18T09:23:40.960Z,4.65
2018-03-18T09:26:07.583Z,3.87
2018-03-18T09:28:34.302Z,4.22
2018-03-18T09:31:00.916Z,4.57
2018-03-18T09:33:27.539Z,3.80
2018-03-18T09:35:54.176Z,4.62
2018-03-18T09:38:20.882Z,3.78
2018-03-18T09:40:47.549Z,4.20
2018-03-18T09:43:14.240Z,4.12
2018-03-18T09:45:40.912Z,3.53
2018-03-18T09:48:07.554Z,3.75
2018-03-18T09:50:34.188Z,4.47
2018-03-18T09:53:00.829Z,4.90
2018-03-18T09:55:27.455Z,3.83
2018-03-18T09:57:54.087Z,4.07
2018-03-18T10:00:20.762Z,4.12
2018-03-18T10:02:47.401Z,4.30
2018-03-18T10:05:14.030Z,3.17
2018-03-18T10:07:40.696Z,3.10
2018-03-18T10:10:07.383Z,4.40
2018-03-18T10:12:34.032Z,3.85
2018-03-18T10:15:00.836Z,3.80
2018-03-18T10:17:27.491Z,2.87
2018-03-18T10:19:54.159Z,3.50
2018-03-18T10:22:20.973Z,3.60
2018-03-18T10:24:48.468Z,3.42
2018-03-18T10:27:15.129Z,4.07
2018-03-18T10:29:41.778Z,3.90
2018-03-18T10:32:08.445Z,3.47
2018-03-18T10:34:35.152Z,4.53
2018-03-18T10:37:01.799Z,4.10
2018-03-18T10:39:28.450Z,3.80
2018-03-18T10:41:55.191Z,3.50
2018-03-18T10:44:21.792Z,4.45
2018-03-18T10:46:48.455Z,3.65
2018-03-18T10:49:15.108Z,4.05
2018-03-18T10:51:41.747Z,3.85
2018-03-18T10:54:08.446Z,3.40
2018-03-18T10:56:35.248Z,2.97
2018-03-18T10:59:11.074Z,3.80
2018-03-18T11:01:44.890Z,4.22
2018-03-18T11:04:17.509Z,4.10
2018-03-18T11:06:48.552Z,3.92
2018-03-18T11:09:17.192Z,4.47
2018-03-18T11:11:48.236Z,3.47
2018-03-18T11:14:16.314Z,2.87
2018-03-18T11:16:42.998Z,3.78
2018-03-18T11:19:10.092Z,4.22
2018-03-18T11:21:41.450Z,3.97
2018-03-18T11:24:08.538Z,3.70
2018-03-18T11:26:37.389Z,2.90
2018-03-18T11:29:04.344Z,3.00
2018-03-18T11:31:31.486Z,4.60
2018-03-18T11:34:03.639Z,3.75
2018-03-18T11:36:30.377Z,3.60
2018-03-18T11:38:58.008Z,4.87
2018-03-18T11:41:25.947Z,3.40
2018-03-18T11:43:52.718Z,3.30
2018-03-18T11:46:19.646Z,3.30
2018-03-18T11:48:50.896Z,3.50
2018-03-18T11:51:18.291Z,3.15
2018-03-18T11:53:49.392Z,3.30
2018-03-18T11:56:27.860Z,4.15
2018-03-18T11:59:09.631Z,4.22
2018-03-18T12:01:42.653Z,2.80
2018-03-18T12:04:10.250Z,3.00
2018-03-18T12:06:41.158Z,3.22
2018-03-18T12:09:08.035Z,3.30
2018-03-18T12:11:35.622Z,3.95
2018-03-18T12:14:02.612Z,4.20
2018-03-18T12:16:33.272Z,3.20
2018-03-18T12:18:59.937Z,2.95
2018-03-18T12:21:26.734Z,3.03
2018-03-18T12:23:56.023Z,3.20
2018-03-18T12:26:39.143Z,3.67
2018-03-18T12:29:05.888Z,3.00
2018-03-18T12:31:39.158Z,2.72
2018-03-18T12:34:06.662Z,2.97
2018-03-18T12:36:34.353Z,3.10
2018-03-18T12:39:02.915Z,3.05
2018-03-18T12:41:29.602Z,3.75
2018-03-18T12:43:56.737Z,3.53
2018-03-18T12:46:23.460Z,2.75
2018-03-18T12:48:50.124Z,3.67
2018-03-18T12:51:16.809Z,2.20
2018-03-18T12:53:43.490Z,3.08
2018-03-18T12:56:10.145Z,3.00
2018-03-18T12:58:37.332Z,3.60
2018-03-18T13:01:04.008Z,2.25
2018-03-18T13:03:31.292Z,3.20
2018-03-18T13:05:57.983Z,3.80
2018-03-18T13:08:24.691Z,3.30
2018-03-18T13:10:52.337Z,3.83
2018-03-18T13:13:18.991Z,3.20
2018-03-18T13:15:46.280Z,3.20
2018-03-18T13:18:13.007Z,3.00
2018-03-18T13:20:39.649Z,3.03
2018-03-18T13:23:06.576Z,3.25
2018-03-18T13:25:33.224Z,2.62
2018-03-18T13:27:59.932Z,2.83
2018-03-18T13:30:26.597Z,2.45
2018-03-18T13:32:53.268Z,3.20
2018-03-18T13:35:20.072Z,2.85
2018-03-18T13:37:46.746Z,3.00
2018-03-18T13:40:13.430Z,4.12
2018-03-18T13:42:40.166Z,3.33
2018-03-18T13:45:06.958Z,3.17
2018-03-18T13:47:33.632Z,3.20
2018-03-18T13:50:00.284Z,3.00
2018-03-18T13:52:26.977Z,3.53
2018-03-18T13:54:53.652Z,2.47
2018-03-18T13:57:20.300Z,2.70
2018-03-18T13:59:46.977Z,3.40
2018-03-18T14:02:14.430Z,2.90
2018-03-18T14:04:41.160Z,3.58
2018-03-18T14:07:07.792Z,3.00
2018-03-18T14:09:34.433Z,2.17
2018-03-18T14:12:01.134Z,2.97
2018-03-18T14:14:27.775Z,3.03
2018-03-18T14:16:54.529Z,2.97
2018-03-18T14:19:21.155Z,2.58
2018-03-18T14:21:47.926Z,2.75
2018-03-18T14:24:14.589Z,2.65
2018-03-18T14:26:41.245Z,3.40
2018-03-18T14:29:07.906Z,2.10
2018-03-18T14:31:35.224Z,2.95
2018-03-18T14:34:02.199Z,3.50
2018-03-18T14:36:28.953Z,3.10
2018-03-18T14:38:55.611Z,3.10
2018-03-18T14:41:22.323Z,2.50
2018-03-18T14:43:49.042Z,3.62
2018-03-18T14:46:15.686Z,3.12
2018-03-18T14:48:42.388Z,2.90
2018-03-18T14:51:09.056Z,3.33
2018-03-18T14:53:35.734Z,2.70
2018-03-18T14:56:02.396Z,3.25
2018-03-18T14:58:29.155Z,2.97
2018-03-18T15:00:55.835Z,3.12
2018-03-18T15:03:22.532Z,2.92
2018-03-18T15:05:49.193Z,2.83
2018-03-18T15:08:15.995Z,3.35
2018-03-18T15:10:42.691Z,3.42
2018-03-18T15:13:09.379Z,4.45
2018-03-18T15:15:36.060Z,2.80
2018-03-18T15:18:02.703Z,3.60
2018-03-18T15:20:29.432Z,3.00
2018-03-18T15:22:56.143Z,2.85
2018-03-18T15:25:23.039Z,3.70
2018-03-18T15:27:49.662Z,2.92
2018-03-18T15:30:16.375Z,3.10
2018-03-18T15:32:43.100Z,2.90
2018-03-18T15:35:09.871Z,2.87
2018-03-18T15:37:36.751Z,2.80
2018-03-18T15:40:03.446Z,3.28
2018-03-18T15:42:30.139Z,3.12
2018-03-18T15:44:56.911Z,2.87
2018-03-18T15:47:23.831Z,2.75
2018-03-18T15:49:50.509Z,3.20
2018-03-18T15:52:17.166Z,2.35
2018-03-18T15:54:43.879Z,3.35
2018-03-18T15:57:10.736Z,2.70
2018-03-18T15:59:37.743Z,3.12
2018-03-18T16:02:04.532Z,3.05
2018-03-18T16:04:31.278Z,2.40
2018-03-18T16:06:58.019Z,3.75
2018-03-18T16:09:24.855Z,3.10
2018-03-18T16:11:51.552Z,2.60
2018-03-18T16:14:18.283Z,3.12
2018-03-18T16:16:44.970Z,3.05
2018-03-18T16:19:11.610Z,3.20
2018-03-18T16:21:38.293Z,3.03
2018-03-18T16:24:04.954Z,3.03
2018-03-18T16:26:31.649Z,2.87
2018-03-18T16:29:04.382Z,2.45
2018-03-18T16:31:31.108Z,2.50
2018-03-18T16:33:57.798Z,2.55
2018-03-18T16:36:24.449Z,3.00
2018-03-18T16:38:51.185Z,2.53
2018-03-18T16:41:17.881Z,3.00
2018-03-18T16:43:44.620Z,3.60
2018-03-18T16:46:11.288Z,3.05
2018-03-18T16:48:38.046Z,2.97
2018-03-18T16:51:05.557Z,3.40
2018-03-18T16:53:32.213Z,2.30
2018-03-18T16:55:59.697Z,2.58
2018-03-18T16:58:26.390Z,2.70
2018-03-18T17:00:53.029Z,2.65
2018-03-18T17:03:19.676Z,2.85
2018-03-18T17:05:47.048Z,3.42
2018-03-18T17:08:13.686Z,2.47
2018-03-18T17:10:40.381Z,2.70
2018-03-18T17:13:07.915Z,3.20
2018-03-18T17:15:34.610Z,4.32
2018-03-18T17:18:05.353Z,2.97
2018-03-18T17:20:32.078Z,3.75
2018-03-18T17:22:58.852Z,3.10
2018-03-18T17:25:25.613Z,3.65
2018-03-18T17:27:52.262Z,3.30
2018-03-18T17:30:18.925Z,2.95
2018-03-18T17:32:45.591Z,3.35
2018-03-18T17:35:12.276Z,3.92
2018-03-18T17:37:38.936Z,2.97
2018-03-18T17:40:05.611Z,2.50
2018-03-18T17:42:32.335Z,2.53
2018-03-18T17:45:04.776Z,2.67
2018-03-18T17:47:51.289Z,2.45
2018-03-18T17:50:34.023Z,2.45
2018-03-18T17:53:06.620Z,2.80
2018-03-18T17:55:33.371Z,2.75
2018-03-18T17:58:00.078Z,3.08
2018-03-18T18:00:27.868Z,2.95
2018-03-18T18:02:55.054Z,3.58
2018-03-18T18:05:28.146Z,3.85
2018-03-18T18:07:56.653Z,3.15
2018-03-18T18:10:24.791Z,2.47
2018-03-18T18:12:51.540Z,3.65
2018-03-18T18:15:19.280Z,2.72
2018-03-18T18:17:46.052Z,2.50
2018-03-18T18:20:14.023Z,4.37
2018-03-18T18:22:41.656Z,3.75
2018-03-18T18:25:09.312Z,2.75
2018-03-18T18:27:36.828Z,3.37
2018-03-18T18:30:05.187Z,4.05
2018-03-18T18:32:32.067Z,3.30
2018-03-18T18:35:03.154Z,2.17
2018-03-18T18:37:29.926Z,2.90
2018-03-18T18:39:56.775Z,3.47
2018-03-18T18:42:23.533Z,3.55
2018-03-18T18:44:51.117Z,3.90
2018-03-18T18:47:17.853Z,2.55
2018-03-18T18:49:48.737Z,3.35
2018-03-18T18:52:15.534Z,2.78
2018-03-18T18:54:43.827Z,2.90
2018-03-18T18:57:11.560Z,2.80
2018-03-18T18:59:42.351Z,3.08
2018-03-18T19:02:15.362Z,2.85
2018-03-18T19:04:44.389Z,2.60
2018-03-18T19:07:31.682Z,3.08
2018-03-18T19:26:17.914Z,3.17
